sensor_id;sensor_type;location;lat;lon;timestamp;P1;durP1;ratioP1;P2;durP2;ratioP2
39180;SDS011;24906;48.262;14.264;2022-07-23T00:00:55;8.40;;;7.60;;
39180;SDS011;24906;48.262;14.264;2022-07-23T00:03:49;9.25;;;7.65;;
39180;SDS011;24906;48.262;14.264;2022-07-23T00:06:36;8.15;;;7.25;;
39180;SDS011;24906;48.262;14.264;2022-07-23T00:09:30;10.88;;;8.02;;
39180;SDS011;24906;48.262;14.264;2022-07-23T00:12:24;8.02;;;7.30;;
39180;SDS011;24906;48.262;14.264;2022-07-23T00:15:11;8.45;;;7.28;;
39180;SDS011;24906;48.262;14.264;2022-07-23T00:18:05;8.25;;;7.43;;
39180;SDS011;24906;48.262;14.264;2022-07-23T00:20:52;7.93;;;7.20;;
39180;SDS011;24906;48.262;14.264;2022-07-23T00:23:46;10.32;;;7.75;;
39180;SDS011;24906;48.262;14.264;2022-07-23T00:26:33;8.10;;;7.47;;
39180;SDS011;24906;48.262;14.264;2022-07-23T00:29:27;8.15;;;7.53;;
39180;SDS011;24906;48.262;14.264;2022-07-23T00:32:14;8.15;;;7.32;;
39180;SDS011;24906;48.262;14.264;2022-07-23T00:35:29;9.15;;;7.68;;
39180;SDS011;24906;48.262;14.264;2022-07-23T00:38:34;7.68;;;6.95;;
39180;SDS011;24906;48.262;14.264;2022-07-23T00:41:21;7.75;;;7.10;;
39180;SDS011;24906;48.262;14.264;2022-07-23T00:44:14;10.68;;;6.88;;
39180;SDS011;24906;48.262;14.264;2022-07-23T00:47:12;7.97;;;7.25;;
39180;SDS011;24906;48.262;14.264;2022-07-23T00:49:59;7.97;;;7.40;;
39180;SDS011;24906;48.262;14.264;2022-07-23T00:52:53;9.20;;;7.80;;
39180;SDS011;24906;48.262;14.264;2022-07-23T00:55:47;12.35;;;7.22;;
39180;SDS011;24906;48.262;14.264;2022-07-23T00:58:41;7.35;;;6.63;;
39180;SDS011;24906;48.262;14.264;2022-07-23T01:01:36;7.57;;;7.00;;
39180;SDS011;24906;48.262;14.264;2022-07-23T01:04:24;8.23;;;7.63;;
39180;SDS011;24906;48.262;14.264;2022-07-23T01:07:18;9.90;;;7.25;;
39180;SDS011;24906;48.262;14.264;2022-07-23T01:10:05;8.20;;;7.50;;
39180;SDS011;24906;48.262;14.264;2022-07-23T01:13:20;8.48;;;7.53;;
39180;SDS011;24906;48.262;14.264;2022-07-23T01:16:07;9.50;;;7.80;;
39180;SDS011;24906;48.262;14.264;2022-07-23T01:19:01;11.73;;;8.10;;
39180;SDS011;24906;48.262;14.264;2022-07-23T01:21:49;7.55;;;7.15;;
39180;SDS011;24906;48.262;14.264;2022-07-23T01:24:44;8.85;;;7.43;;
39180;SDS011;24906;48.262;14.264;2022-07-23T01:27:31;8.52;;;7.82;;
39180;SDS011;24906;48.262;14.264;2022-07-23T01:30:25;8.02;;;7.32;;
39180;SDS011;24906;48.262;14.264;2022-07-23T01:33:12;8.23;;;7.43;;
39180;SDS011;24906;48.262;14.264;2022-07-23T01:36:12;11.05;;;8.10;;
39180;SDS011;24906;48.262;14.264;2022-07-23T01:39:06;12.75;;;8.25;;
39180;SDS011;24906;48.262;14.264;2022-07-23T01:42:02;8.30;;;7.63;;
39180;SDS011;24906;48.262;14.264;2022-07-23T01:44:56;9.05;;;7.78;;
39180;SDS011;24906;48.262;14.264;2022-07-23T01:47:43;8.73;;;7.93;;
39180;SDS011;24906;48.262;14.264;2022-07-23T01:50:37;8.05;;;7.20;;
39180;SDS011;24906;48.262;14.264;2022-07-23T01:53:24;9.80;;;7.70;;
39180;SDS011;24906;48.262;14.264;2022-07-23T01:56:18;8.57;;;7.60;;
39180;SDS011;24906;48.262;14.264;2022-07-23T01:59:13;9.02;;;7.78;;
39180;SDS011;24906;48.262;14.264;2022-07-23T02:02:08;8.63;;;7.82;;
39180;SDS011;24906;48.262;14.264;2022-07-23T02:04:55;8.63;;;7.88;;
39180;SDS011;24906;48.262;14.264;2022-07-23T02:07:49;8.27;;;7.45;;
39180;SDS011;24906;48.262;14.264;2022-07-23T02:10:43;9.10;;;8.18;;
39180;SDS011;24906;48.262;14.264;2022-07-23T02:13:37;9.77;;;7.28;;
39180;SDS011;24906;48.262;14.264;2022-07-23T02:16:24;8.65;;;7.80;;
39180;SDS011;24906;48.262;14.264;2022-07-23T02:19:18;8.35;;;7.70;;
39180;SDS011;24906;48.262;14.264;2022-07-23T02:22:11;9.18;;;8.32;;
39180;SDS011;24906;48.262;14.264;2022-07-23T02:24:58;8.25;;;7.50;;
39180;SDS011;24906;48.262;14.264;2022-07-23T02:27:51;7.93;;;7.25;;
39180;SDS011;24906;48.262;14.264;2022-07-23T02:30:38;8.68;;;7.28;;
39180;SDS011;24906;48.262;14.264;2022-07-23T02:33:33;7.55;;;6.85;;
39180;SDS011;24906;48.262;14.264;2022-07-23T02:36:40;8.80;;;8.00;;
39180;SDS011;24906;48.262;14.264;2022-07-23T02:39:40;10.32;;;7.50;;
39180;SDS011;24906;48.262;14.264;2022-07-23T02:42:33;9.43;;;8.00;;
39180;SDS011;24906;48.262;14.264;2022-07-23T02:45:21;8.65;;;7.88;;
39180;SDS011;24906;48.262;14.264;2022-07-23T02:48:14;9.13;;;8.30;;
39180;SDS011;24906;48.262;14.264;2022-07-23T02:51:09;12.73;;;7.28;;
39180;SDS011;24906;48.262;14.264;2022-07-23T02:54:03;8.07;;;7.47;;
39180;SDS011;24906;48.262;14.264;2022-07-23T02:56:56;8.57;;;7.82;;
39180;SDS011;24906;48.262;14.264;2022-07-23T02:59:43;8.23;;;7.57;;
39180;SDS011;24906;48.262;14.264;2022-07-23T03:02:36;8.02;;;7.22;;
39180;SDS011;24906;48.262;14.264;2022-07-23T03:05:30;8.48;;;7.75;;
39180;SDS011;24906;48.262;14.264;2022-07-23T03:08:17;8.15;;;7.57;;
39180;SDS011;24906;48.262;14.264;2022-07-23T03:11:10;7.85;;;7.35;;
39180;SDS011;24906;48.262;14.264;2022-07-23T03:14:03;11.45;;;7.80;;
39180;SDS011;24906;48.262;14.264;2022-07-23T03:16:57;8.43;;;7.50;;
39180;SDS011;24906;48.262;14.264;2022-07-23T03:19:46;8.27;;;7.50;;
39180;SDS011;24906;48.262;14.264;2022-07-23T03:22:39;12.48;;;8.05;;
39180;SDS011;24906;48.262;14.264;2022-07-23T03:25:32;17.33;;;7.68;;
39180;SDS011;24906;48.262;14.264;2022-07-23T03:28:26;11.45;;;7.82;;
39180;SDS011;24906;48.262;14.264;2022-07-23T03:31:20;8.15;;;7.47;;
39180;SDS011;24906;48.262;14.264;2022-07-23T03:34:08;8.73;;;7.70;;
39180;SDS011;24906;48.262;14.264;2022-07-23T03:37:02;9.15;;;8.40;;
39180;SDS011;24906;48.262;14.264;2022-07-23T03:39:56;8.60;;;8.02;;
39180;SDS011;24906;48.262;14.264;2022-07-23T03:42:49;8.32;;;7.57;;
39180;SDS011;24906;48.262;14.264;2022-07-23T03:45:43;7.88;;;7.38;;
39180;SDS011;24906;48.262;14.264;2022-07-23T03:48:30;8.43;;;7.82;;
39180;SDS011;24906;48.262;14.264;2022-07-23T03:51:25;8.60;;;7.75;;
39180;SDS011;24906;48.262;14.264;2022-07-23T03:54:12;8.43;;;7.82;;
39180;SDS011;24906;48.262;14.264;2022-07-23T03:57:05;7.88;;;7.30;;
39180;SDS011;24906;48.262;14.264;2022-07-23T04:00:00;7.85;;;7.13;;
39180;SDS011;24906;48.262;14.264;2022-07-23T04:02:53;7.68;;;6.97;;
39180;SDS011;24906;48.262;14.264;2022-07-23T04:05:47;6.88;;;6.38;;
39180;SDS011;24906;48.262;14.264;2022-07-23T04:08:34;9.25;;;8.30;;
39180;SDS011;24906;48.262;14.264;2022-07-23T04:11:28;8.45;;;7.90;;
39180;SDS011;24906;48.262;14.264;2022-07-23T04:14:21;9.25;;;8.50;;
39180;SDS011;24906;48.262;14.264;2022-07-23T04:17:14;8.90;;;7.50;;
39180;SDS011;24906;48.262;14.264;2022-07-23T04:20:08;9.65;;;8.95;;
39180;SDS011;24906;48.262;14.264;2022-07-23T04:22:55;9.50;;;8.70;;
39180;SDS011;24906;48.262;14.264;2022-07-23T04:25:51;9.02;;;8.35;;
39180;SDS011;24906;48.262;14.264;2022-07-23T04:28:38;11.05;;;9.88;;
39180;SDS011;24906;48.262;14.264;2022-07-23T04:31:31;10.07;;;9.13;;
39180;SDS011;24906;48.262;14.264;2022-07-23T04:34:31;10.32;;;9.52;;
39180;SDS011;24906;48.262;14.264;2022-07-23T04:37:24;10.60;;;9.73;;
39180;SDS011;24906;48.262;14.264;2022-07-23T04:40:18;10.60;;;9.73;;
39180;SDS011;24906;48.262;14.264;2022-07-23T04:43:12;10.90;;;10.07;;
39180;SDS011;24906;48.262;14.264;2022-07-23T04:46:05;12.45;;;10.02;;
39180;SDS011;24906;48.262;14.264;2022-07-23T04:49:00;11.20;;;10.35;;
39180;SDS011;24906;48.262;14.264;2022-07-23T04:51:54;10.90;;;10.00;;
39180;SDS011;24906;48.262;14.264;2022-07-23T04:54:48;10.40;;;9.18;;
39180;SDS011;24906;48.262;14.264;2022-07-23T04:57:35;10.50;;;9.07;;
39180;SDS011;24906;48.262;14.264;2022-07-23T05:00:29;8.43;;;7.68;;
39180;SDS011;24906;48.262;14.264;2022-07-23T05:03:16;8.23;;;7.45;;
39180;SDS011;24906;48.262;14.264;2022-07-23T05:06:09;7.47;;;6.85;;
39180;SDS011;24906;48.262;14.264;2022-07-23T05:08:57;5.97;;;5.47;;
39180;SDS011;24906;48.262;14.264;2022-07-23T05:11:51;10.93;;;5.13;;
39180;SDS011;24906;48.262;14.264;2022-07-23T05:14:38;5.35;;;4.82;;
39180;SDS011;24906;48.262;14.264;2022-07-23T05:17:32;6.10;;;3.70;;
39180;SDS011;24906;48.262;14.264;2022-07-23T05:20:26;3.67;;;3.40;;
39180;SDS011;24906;48.262;14.264;2022-07-23T05:23:13;3.58;;;3.25;;
39180;SDS011;24906;48.262;14.264;2022-07-23T05:26:06;3.47;;;3.28;;
39180;SDS011;24906;48.262;14.264;2022-07-23T05:28:54;5.13;;;3.25;;
39180;SDS011;24906;48.262;14.264;2022-07-23T05:31:48;3.60;;;3.30;;
39180;SDS011;24906;48.262;14.264;2022-07-23T05:34:48;4.93;;;3.33;;
39180;SDS011;24906;48.262;14.264;2022-07-23T05:37:35;3.50;;;3.28;;
39180;SDS011;24906;48.262;14.264;2022-07-23T05:40:29;3.10;;;2.90;;
39180;SDS011;24906;48.262;14.264;2022-07-23T05:43:17;5.30;;;3.55;;
39180;SDS011;24906;48.262;14.264;2022-07-23T05:46:11;3.10;;;2.97;;
39180;SDS011;24906;48.262;14.264;2022-07-23T05:48:58;3.55;;;3.20;;
39180;SDS011;24906;48.262;14.264;2022-07-23T05:51:52;3.63;;;3.30;;
39180;SDS011;24906;48.262;14.264;2022-07-23T05:54:46;5.32;;;3.38;;
39180;SDS011;24906;48.262;14.264;2022-07-23T05:57:40;5.20;;;3.40;;
39180;SDS011;24906;48.262;14.264;2022-07-23T06:00:28;3.50;;;3.20;;
39180;SDS011;24906;48.262;14.264;2022-07-23T06:03:22;4.70;;;3.33;;
39180;SDS011;24906;48.262;14.264;2022-07-23T06:06:09;3.67;;;3.40;;
39180;SDS011;24906;48.262;14.264;2022-07-23T06:09:02;12.20;;;3.17;;
39180;SDS011;24906;48.262;14.264;2022-07-23T06:11:50;4.18;;;3.40;;
39180;SDS011;24906;48.262;14.264;2022-07-23T06:14:43;4.10;;;2.88;;
39180;SDS011;24906;48.262;14.264;2022-07-23T06:17:38;4.60;;;3.47;;
39180;SDS011;24906;48.262;14.264;2022-07-23T06:20:25;6.75;;;3.78;;
39180;SDS011;24906;48.262;14.264;2022-07-23T06:23:18;3.30;;;3.05;;
39180;SDS011;24906;48.262;14.264;2022-07-23T06:26:05;3.83;;;3.38;;
39180;SDS011;24906;48.262;14.264;2022-07-23T06:28:59;3.63;;;3.33;;
39180;SDS011;24906;48.262;14.264;2022-07-23T06:31:47;5.65;;;3.63;;
39180;SDS011;24906;48.262;14.264;2022-07-23T06:34:40;5.07;;;3.75;;
39180;SDS011;24906;48.262;14.264;2022-07-23T06:37:41;5.40;;;3.47;;
39180;SDS011;24906;48.262;14.264;2022-07-23T06:40:35;3.35;;;3.05;;
39180;SDS011;24906;48.262;14.264;2022-07-23T06:43:30;7.20;;;3.50;;
39180;SDS011;24906;48.262;14.264;2022-07-23T06:46:17;5.68;;;3.65;;
39180;SDS011;24906;48.262;14.264;2022-07-23T06:49:12;7.80;;;3.72;;
39180;SDS011;24906;48.262;14.264;2022-07-23T06:51:59;6.15;;;3.25;;
39180;SDS011;24906;48.262;14.264;2022-07-23T06:54:52;5.22;;;3.25;;
39180;SDS011;24906;48.262;14.264;2022-07-23T06:57:40;3.45;;;3.10;;
39180;SDS011;24906;48.262;14.264;2022-07-23T07:00:33;3.80;;;3.50;;
39180;SDS011;24906;48.262;14.264;2022-07-23T07:03:21;4.00;;;3.70;;
39180;SDS011;24906;48.262;14.264;2022-07-23T07:06:14;4.50;;;3.35;;
39180;SDS011;24906;48.262;14.264;2022-07-23T07:09:10;7.35;;;3.30;;
39180;SDS011;24906;48.262;14.264;2022-07-23T07:12:04;3.63;;;3.20;;
39180;SDS011;24906;48.262;14.264;2022-07-23T07:14:51;3.10;;;2.90;;
39180;SDS011;24906;48.262;14.264;2022-07-23T07:17:46;3.53;;;3.33;;
39180;SDS011;24906;48.262;14.264;2022-07-23T07:20:34;4.55;;;3.13;;
39180;SDS011;24906;48.262;14.264;2022-07-23T07:23:28;3.65;;;2.58;;
39180;SDS011;24906;48.262;14.264;2022-07-23T07:26:15;7.43;;;2.85;;
39180;SDS011;24906;48.262;14.264;2022-07-23T07:29:09;3.10;;;2.90;;
39180;SDS011;24906;48.262;14.264;2022-07-23T07:31:55;2.95;;;2.75;;
39180;SDS011;24906;48.262;14.264;2022-07-23T07:34:49;4.53;;;3.22;;
39180;SDS011;24906;48.262;14.264;2022-07-23T07:37:57;4.78;;;2.90;;
39180;SDS011;24906;48.262;14.264;2022-07-23T07:40:45;3.20;;;2.63;;
39180;SDS011;24906;48.262;14.264;2022-07-23T07:43:39;3.83;;;2.67;;
39180;SDS011;24906;48.262;14.264;2022-07-23T07:46:26;4.50;;;3.03;;
39180;SDS011;24906;48.262;14.264;2022-07-23T07:49:21;3.22;;;3.00;;
39180;SDS011;24906;48.262;14.264;2022-07-23T07:52:20;7.70;;;2.92;;
39180;SDS011;24906;48.262;14.264;2022-07-23T07:55:13;2.70;;;2.35;;
39180;SDS011;24906;48.262;14.264;2022-07-23T07:58:01;2.53;;;2.28;;
39180;SDS011;24906;48.262;14.264;2022-07-23T08:00:55;2.75;;;2.47;;
39180;SDS011;24906;48.262;14.264;2022-07-23T08:03:49;3.08;;;2.88;;
39180;SDS011;24906;48.262;14.264;2022-07-23T08:06:42;2.42;;;2.33;;
39180;SDS011;24906;48.262;14.264;2022-07-23T08:09:29;4.07;;;2.65;;
39180;SDS011;24906;48.262;14.264;2022-07-23T08:12:23;5.97;;;2.92;;
39180;SDS011;24906;48.262;14.264;2022-07-23T08:15:10;7.35;;;2.55;;
39180;SDS011;24906;48.262;14.264;2022-07-23T08:18:10;3.28;;;2.92;;
39180;SDS011;24906;48.262;14.264;2022-07-23T08:21:04;2.97;;;2.75;;
39180;SDS011;24906;48.262;14.264;2022-07-23T08:23:58;3.75;;;3.33;;
39180;SDS011;24906;48.262;14.264;2022-07-23T08:26:46;3.53;;;3.03;;
39180;SDS011;24906;48.262;14.264;2022-07-23T08:29:39;4.22;;;3.08;;
39180;SDS011;24906;48.262;14.264;2022-07-23T08:32:47;3.22;;;2.88;;
39180;SDS011;24906;48.262;14.264;2022-07-23T08:35:54;3.28;;;2.75;;
39180;SDS011;24906;48.262;14.264;2022-07-23T08:38:42;3.20;;;3.00;;
39180;SDS011;24906;48.262;14.264;2022-07-23T08:41:38;6.63;;;3.10;;
39180;SDS011;24906;48.262;14.264;2022-07-23T08:44:33;3.80;;;3.10;;
39180;SDS011;24906;48.262;14.264;2022-07-23T08:47:22;3.30;;;3.10;;
39180;SDS011;24906;48.262;14.264;2022-07-23T08:50:16;2.83;;;2.67;;
39180;SDS011;24906;48.262;14.264;2022-07-23T08:53:10;3.70;;;3.35;;
39180;SDS011;24906;48.262;14.264;2022-07-23T08:56:04;5.35;;;3.40;;
39180;SDS011;24906;48.262;14.264;2022-07-23T08:58:58;4.00;;;3.42;;
39180;SDS011;24906;48.262;14.264;2022-07-23T09:01:51;3.00;;;2.80;;
39180;SDS011;24906;48.262;14.264;2022-07-23T09:04:46;3.78;;;3.38;;
39180;SDS011;24906;48.262;14.264;2022-07-23T09:07:32;3.60;;;2.92;;
39180;SDS011;24906;48.262;14.264;2022-07-23T09:10:26;2.65;;;2.45;;
39180;SDS011;24906;48.262;14.264;2022-07-23T09:13:24;5.50;;;3.33;;
39180;SDS011;24906;48.262;14.264;2022-07-23T09:19:27;3.78;;;3.47;;
39180;SDS011;24906;48.262;14.264;2022-07-23T09:25:17;3.90;;;3.08;;
39180;SDS011;24906;48.262;14.264;2022-07-23T09:28:11;1.95;;;1.55;;
39180;SDS011;24906;48.262;14.264;2022-07-23T09:31:05;3.85;;;2.92;;
39180;SDS011;24906;48.262;14.264;2022-07-23T09:34:09;2.38;;;2.17;;
39180;SDS011;24906;48.262;14.264;2022-07-23T09:37:16;2.47;;;1.95;;
39180;SDS011;24906;48.262;14.264;2022-07-23T09:40:12;5.07;;;3.10;;
39180;SDS011;24906;48.262;14.264;2022-07-23T09:43:06;2.78;;;2.47;;
39180;SDS011;24906;48.262;14.264;2022-07-23T09:45:54;3.50;;;2.90;;
39180;SDS011;24906;48.262;14.264;2022-07-23T09:49:20;2.97;;;2.70;;
39180;SDS011;24906;48.262;14.264;2022-07-23T09:52:16;4.28;;;2.85;;
39180;SDS011;24906;48.262;14.264;2022-07-23T09:55:21;2.40;;;2.20;;
39180;SDS011;24906;48.262;14.264;2022-07-23T09:58:28;3.17;;;2.33;;
39180;SDS011;24906;48.262;14.264;2022-07-23T10:01:23;2.70;;;2.38;;
39180;SDS011;24906;48.262;14.264;2022-07-23T10:04:11;8.15;;;2.60;;
39180;SDS011;24906;48.262;14.264;2022-07-23T10:07:06;3.20;;;2.78;;
39180;SDS011;24906;48.262;14.264;2022-07-23T10:09:56;3.92;;;2.38;;
39180;SDS011;24906;48.262;14.264;2022-07-23T10:12:53;5.15;;;2.55;;
39180;SDS011;24906;48.262;14.264;2022-07-23T10:15:51;2.50;;;2.30;;
39180;SDS011;24906;48.262;14.264;2022-07-23T10:18:45;3.03;;;2.83;;
39180;SDS011;24906;48.262;14.264;2022-07-23T10:27:36;3.88;;;1.92;;
39180;SDS011;24906;48.262;14.264;2022-07-23T10:33:48;2.33;;;2.17;;
39180;SDS011;24906;48.262;14.264;2022-07-23T10:37:00;7.13;;;2.17;;
39180;SDS011;24906;48.262;14.264;2022-07-23T10:40:15;2.60;;;1.63;;
39180;SDS011;24906;48.262;14.264;2022-07-23T10:43:13;1.55;;;1.45;;
39180;SDS011;24906;48.262;14.264;2022-07-23T10:46:24;1.67;;;1.58;;
39180;SDS011;24906;48.262;14.264;2022-07-23T10:49:36;5.65;;;1.60;;
39180;SDS011;24906;48.262;14.264;2022-07-23T10:52:25;2.38;;;1.70;;
39180;SDS011;24906;48.262;14.264;2022-07-23T10:58:46;2.42;;;1.90;;
39180;SDS011;24906;48.262;14.264;2022-07-23T11:01:35;2.10;;;2.00;;
39180;SDS011;24906;48.262;14.264;2022-07-23T11:04:50;2.28;;;1.92;;
39180;SDS011;24906;48.262;14.264;2022-07-23T11:13:56;4.38;;;2.33;;
39180;SDS011;24906;48.262;14.264;2022-07-23T11:16:51;2.35;;;2.13;;
39180;SDS011;24906;48.262;14.264;2022-07-23T11:20:30;2.03;;;1.92;;
39180;SDS011;24906;48.262;14.264;2022-07-23T11:25:53;2.47;;;2.25;;
39180;SDS011;24906;48.262;14.264;2022-07-23T11:28:46;2.50;;;2.10;;
39180;SDS011;24906;48.262;14.264;2022-07-23T11:31:55;4.00;;;2.60;;
39180;SDS011;24906;48.262;14.264;2022-07-23T11:34:44;2.78;;;2.55;;
39180;SDS011;24906;48.262;14.264;2022-07-23T11:37:41;4.85;;;2.60;;
39180;SDS011;24906;48.262;14.264;2022-07-23T11:40:48;6.45;;;3.17;;
39180;SDS011;24906;48.262;14.264;2022-07-23T11:43:37;3.10;;;2.80;;
39180;SDS011;24906;48.262;14.264;2022-07-23T11:46:30;3.85;;;2.60;;
39180;SDS011;24906;48.262;14.264;2022-07-23T11:49:18;4.78;;;2.70;;
39180;SDS011;24906;48.262;14.264;2022-07-23T11:52:12;2.83;;;2.55;;
39180;SDS011;24906;48.262;14.264;2022-07-23T11:55:02;2.90;;;2.70;;
39180;SDS011;24906;48.262;14.264;2022-07-23T11:57:59;5.22;;;2.85;;
39180;SDS011;24906;48.262;14.264;2022-07-23T12:00:46;2.65;;;2.45;;
39180;SDS011;24906;48.262;14.264;2022-07-23T12:03:50;5.85;;;3.05;;
39180;SDS011;24906;48.262;14.264;2022-07-23T12:06:38;2.78;;;2.65;;
39180;SDS011;24906;48.262;14.264;2022-07-23T12:09:31;3.65;;;2.78;;
39180;SDS011;24906;48.262;14.264;2022-07-23T12:12:26;4.55;;;2.90;;
39180;SDS011;24906;48.262;14.264;2022-07-23T12:15:13;3.13;;;2.88;;
39180;SDS011;24906;48.262;14.264;2022-07-23T12:18:09;2.33;;;2.17;;
39180;SDS011;24906;48.262;14.264;2022-07-23T12:24:04;2.90;;;2.70;;
39180;SDS011;24906;48.262;14.264;2022-07-23T12:27:11;2.92;;;2.63;;
39180;SDS011;24906;48.262;14.264;2022-07-23T12:30:39;3.63;;;2.50;;
39180;SDS011;24906;48.262;14.264;2022-07-23T12:33:33;2.78;;;2.67;;
39180;SDS011;24906;48.262;14.264;2022-07-23T12:36:37;2.78;;;2.45;;
39180;SDS011;24906;48.262;14.264;2022-07-23T12:39:33;3.55;;;2.70;;
39180;SDS011;24906;48.262;14.264;2022-07-23T12:42:20;3.00;;;2.80;;
39180;SDS011;24906;48.262;14.264;2022-07-23T12:45:15;3.30;;;3.08;;
39180;SDS011;24906;48.262;14.264;2022-07-23T12:48:04;2.65;;;2.55;;
39180;SDS011;24906;48.262;14.264;2022-07-23T12:51:19;3.47;;;2.60;;
39180;SDS011;24906;48.262;14.264;2022-07-23T12:54:14;2.95;;;2.75;;
39180;SDS011;24906;48.262;14.264;2022-07-23T12:57:09;2.85;;;2.53;;
39180;SDS011;24906;48.262;14.264;2022-07-23T13:00:08;2.80;;;2.60;;
39180;SDS011;24906;48.262;14.264;2022-07-23T13:02:56;2.97;;;2.53;;
39180;SDS011;24906;48.262;14.264;2022-07-23T13:05:50;2.50;;;2.35;;
39180;SDS011;24906;48.262;14.264;2022-07-23T13:08:43;2.75;;;2.50;;
39180;SDS011;24906;48.262;14.264;2022-07-23T13:11:30;2.70;;;2.50;;
39180;SDS011;24906;48.262;14.264;2022-07-23T13:14:25;2.60;;;2.50;;
39180;SDS011;24906;48.262;14.264;2022-07-23T13:17:13;4.47;;;2.65;;
39180;SDS011;24906;48.262;14.264;2022-07-23T13:20:08;5.25;;;2.72;;
39180;SDS011;24906;48.262;14.264;2022-07-23T13:23:02;2.83;;;2.63;;
39180;SDS011;24906;48.262;14.264;2022-07-23T13:25:55;6.50;;;2.70;;
39180;SDS011;24906;48.262;14.264;2022-07-23T13:28:44;3.28;;;2.40;;
39180;SDS011;24906;48.262;14.264;2022-07-23T13:31:38;2.22;;;2.08;;
39180;SDS011;24906;48.262;14.264;2022-07-23T13:34:25;2.50;;;2.40;;
39180;SDS011;24906;48.262;14.264;2022-07-23T13:37:19;2.85;;;2.65;;
39180;SDS011;24906;48.262;14.264;2022-07-23T13:40:13;3.10;;;2.90;;
39180;SDS011;24906;48.262;14.264;2022-07-23T13:43:11;2.72;;;2.42;;
39180;SDS011;24906;48.262;14.264;2022-07-23T13:46:08;4.35;;;2.40;;
39180;SDS011;24906;48.262;14.264;2022-07-23T13:49:02;3.00;;;2.80;;
39180;SDS011;24906;48.262;14.264;2022-07-23T13:51:52;2.78;;;2.65;;
39180;SDS011;24906;48.262;14.264;2022-07-23T13:54:46;3.20;;;3.00;;
39180;SDS011;24906;48.262;14.264;2022-07-23T13:57:43;2.90;;;2.70;;
39180;SDS011;24906;48.262;14.264;2022-07-23T14:00:30;2.70;;;2.60;;
39180;SDS011;24906;48.262;14.264;2022-07-23T14:03:38;3.40;;;3.00;;
39180;SDS011;24906;48.262;14.264;2022-07-23T14:06:25;3.22;;;3.03;;
39180;SDS011;24906;48.262;14.264;2022-07-23T14:09:19;5.38;;;3.15;;
39180;SDS011;24906;48.262;14.264;2022-07-23T14:12:13;8.73;;;3.40;;
39180;SDS011;24906;48.262;14.264;2022-07-23T14:15:09;7.35;;;2.92;;
39180;SDS011;24906;48.262;14.264;2022-07-23T14:17:59;7.30;;;3.20;;
39180;SDS011;24906;48.262;14.264;2022-07-23T14:20:53;3.17;;;2.97;;
39180;SDS011;24906;48.262;14.264;2022-07-23T14:23:40;3.15;;;2.95;;
39180;SDS011;24906;48.262;14.264;2022-07-23T14:26:34;7.07;;;3.63;;
39180;SDS011;24906;48.262;14.264;2022-07-23T14:29:28;3.83;;;3.50;;
39180;SDS011;24906;48.262;14.264;2022-07-23T14:32:16;3.35;;;3.15;;
39180;SDS011;24906;48.262;14.264;2022-07-23T14:35:17;3.65;;;3.35;;
39180;SDS011;24906;48.262;14.264;2022-07-23T14:41:12;3.70;;;3.15;;
39180;SDS011;24906;48.262;14.264;2022-07-23T14:44:02;3.95;;;3.65;;
39180;SDS011;24906;48.262;14.264;2022-07-23T14:46:55;4.57;;;3.75;;
39180;SDS011;24906;48.262;14.264;2022-07-23T14:49:43;7.95;;;3.53;;
39180;SDS011;24906;48.262;14.264;2022-07-23T14:52:38;3.95;;;3.63;;
39180;SDS011;24906;48.262;14.264;2022-07-23T14:55:35;3.47;;;3.15;;
39180;SDS011;24906;48.262;14.264;2022-07-23T14:58:29;3.30;;;3.05;;
39180;SDS011;24906;48.262;14.264;2022-07-23T15:01:23;2.95;;;2.85;;
39180;SDS011;24906;48.262;14.264;2022-07-23T15:04:12;2.92;;;2.72;;
39180;SDS011;24906;48.262;14.264;2022-07-23T15:07:23;3.53;;;2.70;;
39180;SDS011;24906;48.262;14.264;2022-07-23T15:10:19;3.20;;;2.90;;
39180;SDS011;24906;48.262;14.264;2022-07-23T15:13:12;4.50;;;2.72;;
39180;SDS011;24906;48.262;14.264;2022-07-23T15:16:07;3.28;;;2.88;;
39180;SDS011;24906;48.262;14.264;2022-07-23T15:18:56;4.70;;;2.92;;
39180;SDS011;24906;48.262;14.264;2022-07-23T15:21:51;3.60;;;2.90;;
39180;SDS011;24906;48.262;14.264;2022-07-23T15:24:44;3.67;;;2.70;;
39180;SDS011;24906;48.262;14.264;2022-07-23T15:27:39;4.53;;;2.90;;
39180;SDS011;24906;48.262;14.264;2022-07-23T15:30:26;3.60;;;3.30;;
39180;SDS011;24906;48.262;14.264;2022-07-23T15:33:23;3.85;;;3.63;;
39180;SDS011;24906;48.262;14.264;2022-07-23T15:36:17;3.70;;;3.17;;
39180;SDS011;24906;48.262;14.264;2022-07-23T15:39:18;3.53;;;3.13;;
39180;SDS011;24906;48.262;14.264;2022-07-23T15:42:13;7.35;;;3.47;;
39180;SDS011;24906;48.262;14.264;2022-07-23T15:45:01;4.05;;;3.42;;
39180;SDS011;24906;48.262;14.264;2022-07-23T15:47:56;7.75;;;3.70;;
39180;SDS011;24906;48.262;14.264;2022-07-23T15:50:44;5.40;;;3.35;;
39180;SDS011;24906;48.262;14.264;2022-07-23T15:53:38;3.38;;;3.15;;
39180;SDS011;24906;48.262;14.264;2022-07-23T15:56:34;4.10;;;3.80;;
39180;SDS011;24906;48.262;14.264;2022-07-23T15:59:28;6.07;;;3.60;;
39180;SDS011;24906;48.262;14.264;2022-07-23T16:02:16;8.93;;;3.42;;
39180;SDS011;24906;48.262;14.264;2022-07-23T16:05:13;6.32;;;3.60;;
39180;SDS011;24906;48.262;14.264;2022-07-23T16:08:27;4.13;;;3.83;;
39180;SDS011;24906;48.262;14.264;2022-07-23T16:11:14;3.90;;;3.58;;
39180;SDS011;24906;48.262;14.264;2022-07-23T16:14:08;3.83;;;3.38;;
39180;SDS011;24906;48.262;14.264;2022-07-23T16:16:55;5.22;;;3.30;;
39180;SDS011;24906;48.262;14.264;2022-07-23T16:19:49;4.95;;;3.70;;
39180;SDS011;24906;48.262;14.264;2022-07-23T16:22:36;10.38;;;3.75;;
39180;SDS011;24906;48.262;14.264;2022-07-23T16:25:30;5.25;;;4.05;;
39180;SDS011;24906;48.262;14.264;2022-07-23T16:28:20;4.38;;;3.67;;
39180;SDS011;24906;48.262;14.264;2022-07-23T16:31:13;4.28;;;3.63;;
39180;SDS011;24906;48.262;14.264;2022-07-23T16:34:01;3.75;;;3.45;;
39180;SDS011;24906;48.262;14.264;2022-07-23T16:36:55;4.15;;;3.60;;
39180;SDS011;24906;48.262;14.264;2022-07-23T16:39:55;6.85;;;3.78;;
39180;SDS011;24906;48.262;14.264;2022-07-23T16:42:44;9.27;;;3.70;;
39180;SDS011;24906;48.262;14.264;2022-07-23T16:45:38;3.55;;;3.28;;
39180;SDS011;24906;48.262;14.264;2022-07-23T16:48:25;3.60;;;3.40;;
39180;SDS011;24906;48.262;14.264;2022-07-23T16:51:19;3.80;;;3.42;;
39180;SDS011;24906;48.262;14.264;2022-07-23T16:54:13;3.60;;;3.40;;
39180;SDS011;24906;48.262;14.264;2022-07-23T16:57:07;3.75;;;3.45;;
39180;SDS011;24906;48.262;14.264;2022-07-23T16:59:55;3.67;;;3.42;;
39180;SDS011;24906;48.262;14.264;2022-07-23T17:02:49;3.40;;;3.15;;
39180;SDS011;24906;48.262;14.264;2022-07-23T17:05:36;3.95;;;3.65;;
39180;SDS011;24906;48.262;14.264;2022-07-23T17:08:29;5.25;;;3.63;;
39180;SDS011;24906;48.262;14.264;2022-07-23T17:11:16;6.38;;;3.28;;
39180;SDS011;24906;48.262;14.264;2022-07-23T17:14:11;3.33;;;3.03;;
39180;SDS011;24906;48.262;14.264;2022-07-23T17:17:01;3.15;;;2.85;;
39180;SDS011;24906;48.262;14.264;2022-07-23T17:19:56;4.00;;;3.70;;
39180;SDS011;24906;48.262;14.264;2022-07-23T17:22:43;3.75;;;3.45;;
39180;SDS011;24906;48.262;14.264;2022-07-23T17:25:38;4.50;;;3.17;;
39180;SDS011;24906;48.262;14.264;2022-07-23T17:28:32;3.80;;;3.42;;
39180;SDS011;24906;48.262;14.264;2022-07-23T17:31:19;3.97;;;3.58;;
39180;SDS011;24906;48.262;14.264;2022-07-23T17:34:13;7.13;;;3.72;;
39180;SDS011;24906;48.262;14.264;2022-07-23T17:37:13;6.00;;;5.57;;
39180;SDS011;24906;48.262;14.264;2022-07-23T17:40:13;4.32;;;3.75;;
39180;SDS011;24906;48.262;14.264;2022-07-23T17:43:07;3.70;;;3.40;;